Terminal Aerodrome Forecast
Issued by NWS Charleston, WV

Current Version | Previous Version | Graphics & Text | Print | Product List | Glossary On
Versions: 1 2 3 4 5 6 7 8 9 10 11 12 13 14 15 16 17 18 19 20 21 22 23 24 25 26 27
000
FTUS41 KRLX 020900 AAA
TAFBKW
TAF AMD
KBKW 020900Z 0209/0306 23005KT P6SM BKN080
     FM021400 25007KT P6SM SCT080
     FM021800 25010G15KT P6SM VCTS SCT045CB
     FM022200 25009KT 4SM TSRA BR BKN035CB
     FM030100 26006KT P6SM VCTS BKN040CB
     FM030300 25005KT P6SM BKN045
     FM030500 VRB02KT 4SM BR BKN050=

USA.gov is the U.S. government's official web portal to all federal, state and local government web resources and services.